sensor_id;sensor_type;location;lat;lon;timestamp;temperature;humidity
21627;DHT22;10975;47.872;12.972;2023-06-10T00:00:26;16.70;99.90
21627;DHT22;10975;47.872;12.972;2023-06-10T00:02:54;16.70;99.90
21627;DHT22;10975;47.872;12.972;2023-06-10T00:05:20;16.70;99.90
21627;DHT22;10975;47.872;12.972;2023-06-10T00:07:47;16.60;99.90
21627;DHT22;10975;47.872;12.972;2023-06-10T00:10:16;16.60;99.90
21627;DHT22;10975;47.872;12.972;2023-06-10T00:12:43;16.60;99.90
21627;DHT22;10975;47.872;12.972;2023-06-10T00:15:10;16.50;99.90
21627;DHT22;10975;47.872;12.972;2023-06-10T00:17:37;16.50;99.90
21627;DHT22;10975;47.872;12.972;2023-06-10T00:20:07;16.40;99.90
21627;DHT22;10975;47.872;12.972;2023-06-10T00:22:35;16.40;99.90
21627;DHT22;10975;47.872;12.972;2023-06-10T00:25:02;16.30;99.90
21627;DHT22;10975;47.872;12.972;2023-06-10T00:27:30;16.20;99.90
21627;DHT22;10975;47.872;12.972;2023-06-10T00:30:04;16.20;99.90
21627;DHT22;10975;47.872;12.972;2023-06-10T00:32:34;16.20;99.90
21627;DHT22;10975;47.872;12.972;2023-06-10T00:35:01;16.10;99.90
21627;DHT22;10975;47.872;12.972;2023-06-10T00:37:28;16.00;99.90
21627;DHT22;10975;47.872;12.972;2023-06-10T00:39:55;15.90;99.90
21627;DHT22;10975;47.872;12.972;2023-06-10T00:42:22;15.90;99.90
21627;DHT22;10975;47.872;12.972;2023-06-10T00:44:50;15.80;99.90
21627;DHT22;10975;47.872;12.972;2023-06-10T00:47:17;15.80;99.90
21627;DHT22;10975;47.872;12.972;2023-06-10T00:49:45;15.80;99.90
21627;DHT22;10975;47.872;12.972;2023-06-10T00:52:12;15.80;99.90
21627;DHT22;10975;47.872;12.972;2023-06-10T00:54:40;15.80;99.90
21627;DHT22;10975;47.872;12.972;2023-06-10T00:57:07;15.80;99.90
21627;DHT22;10975;47.872;12.972;2023-06-10T00:59:35;15.70;99.90
21627;DHT22;10975;47.872;12.972;2023-06-10T01:02:03;15.70;99.90
21627;DHT22;10975;47.872;12.972;2023-06-10T01:04:30;15.70;99.90
21627;DHT22;10975;47.872;12.972;2023-06-10T01:07:08;15.70;99.90
21627;DHT22;10975;47.872;12.972;2023-06-10T01:09:41;15.60;99.90
21627;DHT22;10975;47.872;12.972;2023-06-10T01:14:40;15.50;99.90
21627;DHT22;10975;47.872;12.972;2023-06-10T01:17:12;15.40;99.90
21627;DHT22;10975;47.872;12.972;2023-06-10T01:19:39;15.40;99.90
21627;DHT22;10975;47.872;12.972;2023-06-10T01:22:07;15.40;99.90
21627;DHT22;10975;47.872;12.972;2023-06-10T01:24:33;15.40;99.90
21627;DHT22;10975;47.872;12.972;2023-06-10T01:27:01;15.30;99.90
21627;DHT22;10975;47.872;12.972;2023-06-10T01:29:36;15.20;99.90
21627;DHT22;10975;47.872;12.972;2023-06-10T01:32:18;15.10;99.90
21627;DHT22;10975;47.872;12.972;2023-06-10T01:34:48;15.10;99.90
21627;DHT22;10975;47.872;12.972;2023-06-10T01:37:18;15.10;99.90
21627;DHT22;10975;47.872;12.972;2023-06-10T01:39:46;15.10;99.90
21627;DHT22;10975;47.872;12.972;2023-06-10T01:42:13;15.10;99.90
21627;DHT22;10975;47.872;12.972;2023-06-10T01:44:40;15.00;99.90
21627;DHT22;10975;47.872;12.972;2023-06-10T01:47:08;15.00;99.90
21627;DHT22;10975;47.872;12.972;2023-06-10T01:49:35;15.00;99.90
21627;DHT22;10975;47.872;12.972;2023-06-10T01:52:02;15.00;99.90
21627;DHT22;10975;47.872;12.972;2023-06-10T01:54:29;15.00;99.90
21627;DHT22;10975;47.872;12.972;2023-06-10T01:56:55;15.00;99.90
21627;DHT22;10975;47.872;12.972;2023-06-10T01:59:22;14.90;99.90
21627;DHT22;10975;47.872;12.972;2023-06-10T02:01:49;14.90;99.90
21627;DHT22;10975;47.872;12.972;2023-06-10T02:04:15;14.80;99.90
21627;DHT22;10975;47.872;12.972;2023-06-10T02:06:43;14.80;99.90
21627;DHT22;10975;47.872;12.972;2023-06-10T02:09:10;14.80;99.90
21627;DHT22;10975;47.872;12.972;2023-06-10T02:11:36;14.70;99.90
21627;DHT22;10975;47.872;12.972;2023-06-10T02:14:03;14.70;99.90
21627;DHT22;10975;47.872;12.972;2023-06-10T02:16:30;14.70;99.90
21627;DHT22;10975;47.872;12.972;2023-06-10T02:18:57;14.60;99.90
21627;DHT22;10975;47.872;12.972;2023-06-10T02:21:25;14.40;99.90
21627;DHT22;10975;47.872;12.972;2023-06-10T02:23:51;14.30;99.90
21627;DHT22;10975;47.872;12.972;2023-06-10T02:26:18;14.30;99.90
21627;DHT22;10975;47.872;12.972;2023-06-10T02:28:45;14.30;99.90
21627;DHT22;10975;47.872;12.972;2023-06-10T02:31:11;14.20;99.90
21627;DHT22;10975;47.872;12.972;2023-06-10T02:33:39;14.10;99.90
21627;DHT22;10975;47.872;12.972;2023-06-10T02:36:08;14.20;99.90
21627;DHT22;10975;47.872;12.972;2023-06-10T02:38:39;14.20;99.90
21627;DHT22;10975;47.872;12.972;2023-06-10T02:41:06;14.20;99.90
21627;DHT22;10975;47.872;12.972;2023-06-10T02:43:33;14.20;99.90
21627;DHT22;10975;47.872;12.972;2023-06-10T02:46:00;14.20;99.90
21627;DHT22;10975;47.872;12.972;2023-06-10T02:48:27;14.20;99.90
21627;DHT22;10975;47.872;12.972;2023-06-10T02:50:54;14.30;99.90
21627;DHT22;10975;47.872;12.972;2023-06-10T02:53:22;14.30;99.90
21627;DHT22;10975;47.872;12.972;2023-06-10T02:55:49;14.30;99.90
21627;DHT22;10975;47.872;12.972;2023-06-10T02:58:15;14.20;99.90
21627;DHT22;10975;47.872;12.972;2023-06-10T03:00:42;14.20;99.90
21627;DHT22;10975;47.872;12.972;2023-06-10T03:03:09;14.10;99.90
21627;DHT22;10975;47.872;12.972;2023-06-10T03:05:37;14.00;99.90
21627;DHT22;10975;47.872;12.972;2023-06-10T03:08:04;14.00;99.90
21627;DHT22;10975;47.872;12.972;2023-06-10T03:10:31;13.90;99.90
21627;DHT22;10975;47.872;12.972;2023-06-10T03:12:59;13.90;99.90
21627;DHT22;10975;47.872;12.972;2023-06-10T03:15:26;13.90;99.90
21627;DHT22;10975;47.872;12.972;2023-06-10T03:17:55;13.90;99.90
21627;DHT22;10975;47.872;12.972;2023-06-10T03:20:22;13.90;99.90
21627;DHT22;10975;47.872;12.972;2023-06-10T03:22:48;13.90;99.90
21627;DHT22;10975;47.872;12.972;2023-06-10T03:25:15;13.90;99.90
21627;DHT22;10975;47.872;12.972;2023-06-10T03:27:43;13.90;99.90
21627;DHT22;10975;47.872;12.972;2023-06-10T03:30:10;13.90;99.90
21627;DHT22;10975;47.872;12.972;2023-06-10T03:32:37;13.90;99.90
21627;DHT22;10975;47.872;12.972;2023-06-10T03:35:04;14.00;99.90
21627;DHT22;10975;47.872;12.972;2023-06-10T03:37:30;14.00;99.90
21627;DHT22;10975;47.872;12.972;2023-06-10T03:39:57;13.90;99.90
21627;DHT22;10975;47.872;12.972;2023-06-10T03:42:24;13.90;99.90
21627;DHT22;10975;47.872;12.972;2023-06-10T03:44:51;13.90;99.90
21627;DHT22;10975;47.872;12.972;2023-06-10T03:47:18;13.90;99.90
21627;DHT22;10975;47.872;12.972;2023-06-10T03:49:44;13.90;99.90
21627;DHT22;10975;47.872;12.972;2023-06-10T03:52:11;13.90;99.90
21627;DHT22;10975;47.872;12.972;2023-06-10T03:54:38;14.00;99.90
21627;DHT22;10975;47.872;12.972;2023-06-10T03:57:04;14.00;99.90
21627;DHT22;10975;47.872;12.972;2023-06-10T03:59:32;14.10;99.90
21627;DHT22;10975;47.872;12.972;2023-06-10T04:01:59;14.10;99.90
21627;DHT22;10975;47.872;12.972;2023-06-10T04:04:26;14.20;99.90
21627;DHT22;10975;47.872;12.972;2023-06-10T04:06:54;14.20;99.90
21627;DHT22;10975;47.872;12.972;2023-06-10T04:09:20;14.30;99.90
21627;DHT22;10975;47.872;12.972;2023-06-10T04:11:47;14.30;99.90
21627;DHT22;10975;47.872;12.972;2023-06-10T04:14:14;14.30;99.90
21627;DHT22;10975;47.872;12.972;2023-06-10T04:16:41;14.30;99.90
21627;DHT22;10975;47.872;12.972;2023-06-10T04:19:09;14.30;99.90
21627;DHT22;10975;47.872;12.972;2023-06-10T04:21:36;14.40;99.90
21627;DHT22;10975;47.872;12.972;2023-06-10T04:24:03;14.40;99.90
21627;DHT22;10975;47.872;12.972;2023-06-10T04:26:30;14.30;99.90
21627;DHT22;10975;47.872;12.972;2023-06-10T04:28:56;14.20;99.90
21627;DHT22;10975;47.872;12.972;2023-06-10T04:31:23;14.30;99.90
21627;DHT22;10975;47.872;12.972;2023-06-10T04:33:50;14.30;99.90
21627;DHT22;10975;47.872;12.972;2023-06-10T04:36:16;14.30;99.90
21627;DHT22;10975;47.872;12.972;2023-06-10T04:38:43;14.40;99.90
21627;DHT22;10975;47.872;12.972;2023-06-10T04:41:10;14.50;99.90
21627;DHT22;10975;47.872;12.972;2023-06-10T04:43:36;14.40;99.90
21627;DHT22;10975;47.872;12.972;2023-06-10T04:46:03;14.40;99.90
21627;DHT22;10975;47.872;12.972;2023-06-10T04:48:34;14.40;99.90
21627;DHT22;10975;47.872;12.972;2023-06-10T04:51:02;14.50;99.90
21627;DHT22;10975;47.872;12.972;2023-06-10T04:53:28;14.50;99.90
21627;DHT22;10975;47.872;12.972;2023-06-10T04:55:56;14.60;99.90
21627;DHT22;10975;47.872;12.972;2023-06-10T04:58:23;14.50;99.90
21627;DHT22;10975;47.872;12.972;2023-06-10T05:00:50;14.60;99.90
21627;DHT22;10975;47.872;12.972;2023-06-10T05:03:17;14.60;99.90
21627;DHT22;10975;47.872;12.972;2023-06-10T05:05:44;14.70;99.90
21627;DHT22;10975;47.872;12.972;2023-06-10T05:08:10;14.80;99.90
21627;DHT22;10975;47.872;12.972;2023-06-10T05:10:37;14.80;99.90
21627;DHT22;10975;47.872;12.972;2023-06-10T05:13:07;14.90;99.90
21627;DHT22;10975;47.872;12.972;2023-06-10T05:15:33;15.10;99.90
21627;DHT22;10975;47.872;12.972;2023-06-10T05:18:00;15.20;99.90
21627;DHT22;10975;47.872;12.972;2023-06-10T05:20:29;15.20;99.90
21627;DHT22;10975;47.872;12.972;2023-06-10T05:22:55;15.40;99.90
21627;DHT22;10975;47.872;12.972;2023-06-10T05:25:22;15.60;99.90
21627;DHT22;10975;47.872;12.972;2023-06-10T05:27:49;15.80;99.90
21627;DHT22;10975;47.872;12.972;2023-06-10T05:30:15;15.90;99.90
21627;DHT22;10975;47.872;12.972;2023-06-10T05:32:45;16.00;99.90
21627;DHT22;10975;47.872;12.972;2023-06-10T05:35:11;16.20;99.90
21627;DHT22;10975;47.872;12.972;2023-06-10T05:37:38;16.20;99.90
21627;DHT22;10975;47.872;12.972;2023-06-10T05:40:05;16.30;99.90
21627;DHT22;10975;47.872;12.972;2023-06-10T05:42:32;16.30;99.90
21627;DHT22;10975;47.872;12.972;2023-06-10T05:44:59;16.40;99.90
21627;DHT22;10975;47.872;12.972;2023-06-10T05:47:26;16.50;99.90
21627;DHT22;10975;47.872;12.972;2023-06-10T05:49:52;16.50;99.90
21627;DHT22;10975;47.872;12.972;2023-06-10T05:52:21;16.60;99.90
21627;DHT22;10975;47.872;12.972;2023-06-10T05:54:48;16.70;99.90
21627;DHT22;10975;47.872;12.972;2023-06-10T05:57:15;16.70;99.90
21627;DHT22;10975;47.872;12.972;2023-06-10T05:59:42;16.80;99.90
21627;DHT22;10975;47.872;12.972;2023-06-10T06:02:08;16.90;99.90
21627;DHT22;10975;47.872;12.972;2023-06-10T06:04:35;17.00;99.90
21627;DHT22;10975;47.872;12.972;2023-06-10T06:07:02;17.00;99.90
21627;DHT22;10975;47.872;12.972;2023-06-10T06:09:29;16.90;99.90
21627;DHT22;10975;47.872;12.972;2023-06-10T06:11:56;16.90;99.90
21627;DHT22;10975;47.872;12.972;2023-06-10T06:14:22;17.10;99.90
21627;DHT22;10975;47.872;12.972;2023-06-10T06:16:49;17.10;99.90
21627;DHT22;10975;47.872;12.972;2023-06-10T06:19:16;17.10;99.90
21627;DHT22;10975;47.872;12.972;2023-06-10T06:21:43;17.30;99.90
21627;DHT22;10975;47.872;12.972;2023-06-10T06:24:10;17.40;99.90
21627;DHT22;10975;47.872;12.972;2023-06-10T06:26:43;17.60;99.90
21627;DHT22;10975;47.872;12.972;2023-06-10T06:29:10;17.70;99.90
21627;DHT22;10975;47.872;12.972;2023-06-10T06:31:37;17.90;99.90
21627;DHT22;10975;47.872;12.972;2023-06-10T06:34:04;17.90;99.90
21627;DHT22;10975;47.872;12.972;2023-06-10T06:36:32;18.00;99.90
21627;DHT22;10975;47.872;12.972;2023-06-10T06:38:58;18.10;99.90
21627;DHT22;10975;47.872;12.972;2023-06-10T06:41:28;18.00;99.90
21627;DHT22;10975;47.872;12.972;2023-06-10T06:43:55;18.10;99.90
21627;DHT22;10975;47.872;12.972;2023-06-10T06:46:22;18.10;99.90
21627;DHT22;10975;47.872;12.972;2023-06-10T06:48:49;18.10;99.90
21627;DHT22;10975;47.872;12.972;2023-06-10T06:51:16;18.10;99.90
21627;DHT22;10975;47.872;12.972;2023-06-10T06:53:42;18.30;99.90
21627;DHT22;10975;47.872;12.972;2023-06-10T06:56:12;18.40;99.90
21627;DHT22;10975;47.872;12.972;2023-06-10T06:58:38;18.30;99.90
21627;DHT22;10975;47.872;12.972;2023-06-10T07:01:05;18.30;99.90
21627;DHT22;10975;47.872;12.972;2023-06-10T07:03:32;18.40;99.90
21627;DHT22;10975;47.872;12.972;2023-06-10T07:05:59;18.50;99.90
21627;DHT22;10975;47.872;12.972;2023-06-10T07:08:25;18.70;99.90
21627;DHT22;10975;47.872;12.972;2023-06-10T07:10:52;18.80;99.90
21627;DHT22;10975;47.872;12.972;2023-06-10T07:13:19;18.80;99.90
21627;DHT22;10975;47.872;12.972;2023-06-10T07:15:47;19.00;99.90
21627;DHT22;10975;47.872;12.972;2023-06-10T07:18:14;19.10;99.90
21627;DHT22;10975;47.872;12.972;2023-06-10T07:20:41;19.20;99.90
21627;DHT22;10975;47.872;12.972;2023-06-10T07:23:08;19.10;99.90
21627;DHT22;10975;47.872;12.972;2023-06-10T07:25:34;19.10;99.90
21627;DHT22;10975;47.872;12.972;2023-06-10T07:28:01;19.10;99.90
21627;DHT22;10975;47.872;12.972;2023-06-10T07:30:28;19.20;99.90
21627;DHT22;10975;47.872;12.972;2023-06-10T07:32:55;19.30;99.90
21627;DHT22;10975;47.872;12.972;2023-06-10T07:35:22;19.30;99.90
21627;DHT22;10975;47.872;12.972;2023-06-10T07:37:51;19.40;99.90
21627;DHT22;10975;47.872;12.972;2023-06-10T07:40:20;19.40;99.90
21627;DHT22;10975;47.872;12.972;2023-06-10T07:42:47;19.50;99.90
21627;DHT22;10975;47.872;12.972;2023-06-10T07:45:14;19.60;99.90
21627;DHT22;10975;47.872;12.972;2023-06-10T07:47:40;19.50;99.90
21627;DHT22;10975;47.872;12.972;2023-06-10T07:50:07;19.50;99.90
21627;DHT22;10975;47.872;12.972;2023-06-10T07:52:34;19.60;99.90
21627;DHT22;10975;47.872;12.972;2023-06-10T07:55:01;19.80;99.90
21627;DHT22;10975;47.872;12.972;2023-06-10T07:57:28;19.80;99.90
21627;DHT22;10975;47.872;12.972;2023-06-10T08:00:02;19.60;99.90
21627;DHT22;10975;47.872;12.972;2023-06-10T08:02:30;19.70;99.90
21627;DHT22;10975;47.872;12.972;2023-06-10T08:04:57;19.80;99.90
21627;DHT22;10975;47.872;12.972;2023-06-10T08:07:24;19.90;99.90
21627;DHT22;10975;47.872;12.972;2023-06-10T08:09:52;20.20;99.90
21627;DHT22;10975;47.872;12.972;2023-06-10T08:12:18;20.40;99.90
21627;DHT22;10975;47.872;12.972;2023-06-10T08:14:46;20.40;99.90
21627;DHT22;10975;47.872;12.972;2023-06-10T08:17:13;20.40;99.90
21627;DHT22;10975;47.872;12.972;2023-06-10T08:19:40;20.60;99.90
21627;DHT22;10975;47.872;12.972;2023-06-10T08:22:06;20.60;99.90
21627;DHT22;10975;47.872;12.972;2023-06-10T08:24:33;20.40;99.90
21627;DHT22;10975;47.872;12.972;2023-06-10T08:27:00;20.50;99.90
21627;DHT22;10975;47.872;12.972;2023-06-10T08:29:26;20.60;99.90
21627;DHT22;10975;47.872;12.972;2023-06-10T08:31:53;20.80;99.90
21627;DHT22;10975;47.872;12.972;2023-06-10T08:34:20;20.80;99.90
21627;DHT22;10975;47.872;12.972;2023-06-10T08:36:46;20.60;99.90
21627;DHT22;10975;47.872;12.972;2023-06-10T08:39:21;20.50;99.90
21627;DHT22;10975;47.872;12.972;2023-06-10T08:44:31;20.60;99.90
21627;DHT22;10975;47.872;12.972;2023-06-10T08:46:59;20.70;99.90
21627;DHT22;10975;47.872;12.972;2023-06-10T08:49:27;20.80;99.90
21627;DHT22;10975;47.872;12.972;2023-06-10T08:52:00;20.90;99.90
21627;DHT22;10975;47.872;12.972;2023-06-10T08:54:30;20.80;99.90
21627;DHT22;10975;47.872;12.972;2023-06-10T08:56:59;20.60;99.90
21627;DHT22;10975;47.872;12.972;2023-06-10T08:59:26;20.70;99.90
21627;DHT22;10975;47.872;12.972;2023-06-10T09:01:53;20.80;99.90
21627;DHT22;10975;47.872;12.972;2023-06-10T09:04:20;21.00;99.90
21627;DHT22;10975;47.872;12.972;2023-06-10T09:06:48;21.30;99.90
21627;DHT22;10975;47.872;12.972;2023-06-10T09:09:15;21.40;99.90
21627;DHT22;10975;47.872;12.972;2023-06-10T09:11:42;21.50;99.90
21627;DHT22;10975;47.872;12.972;2023-06-10T09:14:09;21.50;99.90
21627;DHT22;10975;47.872;12.972;2023-06-10T09:16:38;21.60;99.90
21627;DHT22;10975;47.872;12.972;2023-06-10T09:19:06;21.60;99.90
21627;DHT22;10975;47.872;12.972;2023-06-10T09:21:34;21.70;99.90
21627;DHT22;10975;47.872;12.972;2023-06-10T09:24:02;21.60;99.90
21627;DHT22;10975;47.872;12.972;2023-06-10T09:26:29;21.60;99.90
21627;DHT22;10975;47.872;12.972;2023-06-10T09:29:06;21.70;99.90
21627;DHT22;10975;47.872;12.972;2023-06-10T09:31:35;21.90;99.90
21627;DHT22;10975;47.872;12.972;2023-06-10T09:34:06;22.20;99.90
21627;DHT22;10975;47.872;12.972;2023-06-10T09:36:33;22.10;99.90
21627;DHT22;10975;47.872;12.972;2023-06-10T09:39:00;22.30;99.90
21627;DHT22;10975;47.872;12.972;2023-06-10T09:41:39;22.50;99.90
21627;DHT22;10975;47.872;12.972;2023-06-10T09:44:11;22.30;99.90
21627;DHT22;10975;47.872;12.972;2023-06-10T09:46:37;22.50;99.90
21627;DHT22;10975;47.872;12.972;2023-06-10T09:49:04;22.70;99.90
21627;DHT22;10975;47.872;12.972;2023-06-10T09:51:31;22.40;99.90
21627;DHT22;10975;47.872;12.972;2023-06-10T09:53:58;22.30;99.90
21627;DHT22;10975;47.872;12.972;2023-06-10T09:56:35;22.30;99.90
21627;DHT22;10975;47.872;12.972;2023-06-10T09:59:02;22.30;99.90
21627;DHT22;10975;47.872;12.972;2023-06-10T10:01:30;22.60;99.90
21627;DHT22;10975;47.872;12.972;2023-06-10T10:03:57;22.90;99.90
21627;DHT22;10975;47.872;12.972;2023-06-10T10:06:24;23.20;99.90
21627;DHT22;10975;47.872;12.972;2023-06-10T10:08:51;23.40;99.90
21627;DHT22;10975;47.872;12.972;2023-06-10T10:11:19;23.40;99.90
21627;DHT22;10975;47.872;12.972;2023-06-10T10:13:49;23.40;99.90
21627;DHT22;10975;47.872;12.972;2023-06-10T10:16:20;23.60;99.90
21627;DHT22;10975;47.872;12.972;2023-06-10T10:18:59;23.50;99.90
21627;DHT22;10975;47.872;12.972;2023-06-10T10:21:29;23.60;99.90
21627;DHT22;10975;47.872;12.972;2023-06-10T10:24:01;23.90;99.90
21627;DHT22;10975;47.872;12.972;2023-06-10T10:26:29;23.90;99.90
21627;DHT22;10975;47.872;12.972;2023-06-10T10:31:24;23.70;99.90
21627;DHT22;10975;47.872;12.972;2023-06-10T10:34:00;24.00;99.90
21627;DHT22;10975;47.872;12.972;2023-06-10T10:36:27;24.30;99.90
21627;DHT22;10975;47.872;12.972;2023-06-10T10:38:54;24.50;99.90
21627;DHT22;10975;47.872;12.972;2023-06-10T10:41:21;24.80;99.90
21627;DHT22;10975;47.872;12.972;2023-06-10T10:43:49;25.00;99.90
21627;DHT22;10975;47.872;12.972;2023-06-10T10:46:18;25.10;99.90
21627;DHT22;10975;47.872;12.972;2023-06-10T10:48:45;25.30;99.90
21627;DHT22;10975;47.872;12.972;2023-06-10T10:51:12;25.50;99.90
21627;DHT22;10975;47.872;12.972;2023-06-10T10:53:41;25.50;99.90
21627;DHT22;10975;47.872;12.972;2023-06-10T10:56:14;25.40;99.90
21627;DHT22;10975;47.872;12.972;2023-06-10T10:58:41;25.20;99.90
21627;DHT22;10975;47.872;12.972;2023-06-10T11:01:12;25.30;99.90
21627;DHT22;10975;47.872;12.972;2023-06-10T11:03:46;25.40;99.90
21627;DHT22;10975;47.872;12.972;2023-06-10T11:06:14;25.70;99.90
21627;DHT22;10975;47.872;12.972;2023-06-10T11:11:26;25.60;99.90
21627;DHT22;10975;47.872;12.972;2023-06-10T11:16:41;25.30;99.90
21627;DHT22;10975;47.872;12.972;2023-06-10T11:19:08;24.90;99.90
21627;DHT22;10975;47.872;12.972;2023-06-10T11:24:32;24.40;99.90
21627;DHT22;10975;47.872;12.972;2023-06-10T11:27:17;24.40;99.90
21627;DHT22;10975;47.872;12.972;2023-06-10T11:30:27;24.50;99.90
21627;DHT22;10975;47.872;12.972;2023-06-10T11:32:34;24.70;99.90
21627;DHT22;10975;47.872;12.972;2023-06-10T11:35:05;24.60;99.90
21627;DHT22;10975;47.872;12.972;2023-06-10T11:37:32;25.00;99.90
21627;DHT22;10975;47.872;12.972;2023-06-10T11:39:58;25.50;99.90
21627;DHT22;10975;47.872;12.972;2023-06-10T11:42:25;25.70;99.90
21627;DHT22;10975;47.872;12.972;2023-06-10T11:44:52;25.90;99.90
21627;DHT22;10975;47.872;12.972;2023-06-10T11:47:19;25.90;99.90
21627;DHT22;10975;47.872;12.972;2023-06-10T11:49:51;25.80;99.90
21627;DHT22;10975;47.872;12.972;2023-06-10T11:52:39;26.00;99.90
21627;DHT22;10975;47.872;12.972;2023-06-10T11:55:10;26.00;99.90
21627;DHT22;10975;47.872;12.972;2023-06-10T11:57:37;25.80;99.90
21627;DHT22;10975;47.872;12.972;2023-06-10T12:00:07;25.70;99.90
21627;DHT22;10975;47.872;12.972;2023-06-10T12:02:34;26.00;99.90
21627;DHT22;10975;47.872;12.972;2023-06-10T12:07:46;25.80;99.90
21627;DHT22;10975;47.872;12.972;2023-06-10T12:10:13;25.90;99.90
21627;DHT22;10975;47.872;12.972;2023-06-10T12:12:53;25.90;99.90
21627;DHT22;10975;47.872;12.972;2023-06-10T12:15:23;26.10;99.90
21627;DHT22;10975;47.872;12.972;2023-06-10T12:17:50;25.90;99.90
21627;DHT22;10975;47.872;12.972;2023-06-10T12:20:30;25.60;99.90
21627;DHT22;10975;47.872;12.972;2023-06-10T12:23:07;25.10;99.90
21627;DHT22;10975;47.872;12.972;2023-06-10T12:25:35;24.70;99.90
21627;DHT22;10975;47.872;12.972;2023-06-10T12:28:09;24.60;99.90
21627;DHT22;10975;47.872;12.972;2023-06-10T12:30:36;24.50;99.90
21627;DHT22;10975;47.872;12.972;2023-06-10T12:33:03;24.40;99.90
21627;DHT22;10975;47.872;12.972;2023-06-10T12:35:30;24.20;99.90
21627;DHT22;10975;47.872;12.972;2023-06-10T12:40:32;24.00;99.90
21627;DHT22;10975;47.872;12.972;2023-06-10T12:42:59;24.00;99.90
21627;DHT22;10975;47.872;12.972;2023-06-10T12:45:27;24.30;99.90
21627;DHT22;10975;47.872;12.972;2023-06-10T12:50:57;24.70;99.90
21627;DHT22;10975;47.872;12.972;2023-06-10T12:53:24;24.90;99.90
21627;DHT22;10975;47.872;12.972;2023-06-10T12:55:52;24.80;99.90
21627;DHT22;10975;47.872;12.972;2023-06-10T12:58:22;24.80;99.90
21627;DHT22;10975;47.872;12.972;2023-06-10T13:00:49;24.90;99.90
21627;DHT22;10975;47.872;12.972;2023-06-10T13:03:19;24.70;99.90
21627;DHT22;10975;47.872;12.972;2023-06-10T13:05:46;24.20;99.90
21627;DHT22;10975;47.872;12.972;2023-06-10T13:08:13;24.10;99.90
21627;DHT22;10975;47.872;12.972;2023-06-10T13:10:40;24.10;99.90
21627;DHT22;10975;47.872;12.972;2023-06-10T13:13:06;24.20;99.90
21627;DHT22;10975;47.872;12.972;2023-06-10T13:15:34;24.20;99.90
21627;DHT22;10975;47.872;12.972;2023-06-10T13:18:07;24.30;99.90
21627;DHT22;10975;47.872;12.972;2023-06-10T13:20:34;24.10;99.90
21627;DHT22;10975;47.872;12.972;2023-06-10T13:23:01;23.80;99.90
21627;DHT22;10975;47.872;12.972;2023-06-10T13:25:28;23.80;99.90
21627;DHT22;10975;47.872;12.972;2023-06-10T13:27:54;23.70;99.90
21627;DHT22;10975;47.872;12.972;2023-06-10T13:30:22;23.80;99.90
21627;DHT22;10975;47.872;12.972;2023-06-10T13:32:48;23.80;99.90
21627;DHT22;10975;47.872;12.972;2023-06-10T13:35:15;23.90;99.90
21627;DHT22;10975;47.872;12.972;2023-06-10T13:37:42;24.00;99.90
21627;DHT22;10975;47.872;12.972;2023-06-10T13:40:08;24.10;99.90
21627;DHT22;10975;47.872;12.972;2023-06-10T13:42:36;24.10;99.90
21627;DHT22;10975;47.872;12.972;2023-06-10T13:45:04;24.30;99.90
21627;DHT22;10975;47.872;12.972;2023-06-10T13:47:31;24.70;99.90
21627;DHT22;10975;47.872;12.972;2023-06-10T13:49:57;25.00;99.90
21627;DHT22;10975;47.872;12.972;2023-06-10T13:52:24;25.50;99.90
21627;DHT22;10975;47.872;12.972;2023-06-10T13:54:51;25.90;99.90
21627;DHT22;10975;47.872;12.972;2023-06-10T13:57:18;26.00;99.90
21627;DHT22;10975;47.872;12.972;2023-06-10T13:59:44;26.10;99.90
21627;DHT22;10975;47.872;12.972;2023-06-10T14:02:11;26.20;99.90
21627;DHT22;10975;47.872;12.972;2023-06-10T14:04:38;26.30;99.90
21627;DHT22;10975;47.872;12.972;2023-06-10T14:07:04;26.20;99.90
21627;DHT22;10975;47.872;12.972;2023-06-10T14:09:31;26.10;99.90
21627;DHT22;10975;47.872;12.972;2023-06-10T14:11:58;26.00;99.90
21627;DHT22;10975;47.872;12.972;2023-06-10T14:14:24;26.00;99.90
21627;DHT22;10975;47.872;12.972;2023-06-10T14:16:51;25.90;99.90
21627;DHT22;10975;47.872;12.972;2023-06-10T14:19:18;25.90;99.90
21627;DHT22;10975;47.872;12.972;2023-06-10T14:21:45;25.80;99.90
21627;DHT22;10975;47.872;12.972;2023-06-10T14:24:11;25.70;99.90
21627;DHT22;10975;47.872;12.972;2023-06-10T14:26:38;25.70;99.90
21627;DHT22;10975;47.872;12.972;2023-06-10T14:29:05;25.60;99.90
21627;DHT22;10975;47.872;12.972;2023-06-10T14:31:31;25.40;99.90
21627;DHT22;10975;47.872;12.972;2023-06-10T14:33:58;25.30;99.90
21627;DHT22;10975;47.872;12.972;2023-06-10T14:36:25;25.10;99.90
21627;DHT22;10975;47.872;12.972;2023-06-10T14:38:52;25.00;99.90
21627;DHT22;10975;47.872;12.972;2023-06-10T14:41:20;24.80;99.90
21627;DHT22;10975;47.872;12.972;2023-06-10T14:43:46;24.50;99.90
21627;DHT22;10975;47.872;12.972;2023-06-10T14:46:13;24.40;99.90
21627;DHT22;10975;47.872;12.972;2023-06-10T14:48:40;24.40;99.90
21627;DHT22;10975;47.872;12.972;2023-06-10T14:51:06;24.20;99.90
21627;DHT22;10975;47.872;12.972;2023-06-10T14:53:33;24.10;99.90
21627;DHT22;10975;47.872;12.972;2023-06-10T14:56:00;24.10;99.90
21627;DHT22;10975;47.872;12.972;2023-06-10T14:58:27;24.00;99.90
21627;DHT22;10975;47.872;12.972;2023-06-10T15:00:53;23.90;99.90
21627;DHT22;10975;47.872;12.972;2023-06-10T15:03:20;24.00;99.90
21627;DHT22;10975;47.872;12.972;2023-06-10T15:05:49;24.10;99.90
21627;DHT22;10975;47.872;12.972;2023-06-10T15:08:16;23.90;99.90
21627;DHT22;10975;47.872;12.972;2023-06-10T15:10:43;24.00;99.90
21627;DHT22;10975;47.872;12.972;2023-06-10T15:13:10;24.10;99.90
21627;DHT22;10975;47.872;12.972;2023-06-10T15:15:36;23.90;99.90
21627;DHT22;10975;47.872;12.972;2023-06-10T15:18:03;23.90;99.90
21627;DHT22;10975;47.872;12.972;2023-06-10T15:20:30;23.80;99.90
21627;DHT22;10975;47.872;12.972;2023-06-10T15:22:56;23.70;99.90
21627;DHT22;10975;47.872;12.972;2023-06-10T15:25:23;23.60;99.90
21627;DHT22;10975;47.872;12.972;2023-06-10T15:27:57;23.60;99.90
21627;DHT22;10975;47.872;12.972;2023-06-10T15:30:24;23.60;99.90
21627;DHT22;10975;47.872;12.972;2023-06-10T15:32:51;23.70;99.90
21627;DHT22;10975;47.872;12.972;2023-06-10T15:35:17;23.80;99.90
21627;DHT22;10975;47.872;12.972;2023-06-10T15:37:44;23.90;99.90
21627;DHT22;10975;47.872;12.972;2023-06-10T15:40:11;24.10;99.90
21627;DHT22;10975;47.872;12.972;2023-06-10T15:42:38;24.50;99.90